Tachie, Canada
Current Conditions -  °F | °C
As of 6:00 AM on Monday 20 Oct 2014 (Local Time) from CYZY Reporting Station
Overcast Overcast  
Wind Chill: 48°   Ceiling: 7000
Heat Index: 48°   Visibility: 9mi
Dew Point: 48°   Wind: 3mph
Humidity: 100%   Direction: 190°S
Pressure: 29.49"   Gusts: NA
Location:  54.65°N, 124.77°W
Report Text: CYZY 201300Z AUTO 19003KT 9SM BKN070 OVC089 09/09 A2949 RMK SLP000 DENSITY ALT 2500FT
Loading
Personal Weather Stations






























Interactive Weather Map
Tropical Storm Tracking
New forecast layout! Learn more

10-Day Weather Forecast

Advertisements
Track Severe Weather on mobile